createdAt,value
2023-01-13T00:00:19.744Z,16.35
2023-01-13T00:03:22.161Z,16.34
2023-01-13T00:06:29.284Z,16.33
2023-01-13T00:09:30.842Z,16.32
2023-01-13T00:12:32.442Z,16.32
2023-01-13T00:15:34.226Z,16.31
2023-01-13T00:18:36.921Z,16.32
2023-01-13T00:21:38.530Z,16.30
2023-01-13T00:24:40.071Z,16.29
2023-01-13T00:27:41.903Z,16.28
2023-01-13T00:30:43.428Z,16.28
2023-01-13T00:33:45.415Z,16.27
2023-01-13T00:36:46.952Z,16.26
2023-01-13T00:39:48.520Z,16.25
2023-01-13T00:43:08.552Z,16.25
2023-01-13T00:46:12.617Z,16.25
2023-01-13T00:49:14.156Z,16.23
2023-01-13T00:52:16.279Z,16.22
2023-01-13T00:55:17.847Z,16.22
2023-01-13T00:58:19.348Z,16.20
2023-01-13T01:01:22.831Z,16.20
2023-01-13T01:04:24.432Z,16.19
2023-01-13T01:07:25.930Z,16.20
2023-01-13T01:10:27.519Z,16.19
2023-01-13T01:13:29.253Z,16.19
2023-01-13T01:16:32.143Z,16.19
2023-01-13T01:19:37.334Z,16.17
2023-01-13T01:22:38.840Z,16.17
2023-01-13T01:25:40.367Z,16.15
2023-01-13T01:28:42.880Z,16.15
2023-01-13T01:31:44.700Z,16.15
2023-01-13T01:34:46.277Z,16.13
2023-01-13T01:37:47.789Z,16.14
2023-01-13T01:40:49.614Z,16.12
2023-01-13T01:44:06.992Z,16.12
2023-01-13T01:47:14.527Z,16.13
2023-01-13T01:50:17.492Z,16.13
2023-01-13T01:53:20.615Z,16.11
2023-01-13T01:56:22.342Z,16.10
2023-01-13T01:59:25.558Z,16.11
2023-01-13T02:02:30.738Z,16.11
2023-01-13T02:05:34.293Z,16.09
2023-01-13T02:08:38.649Z,16.09
2023-01-13T02:11:58.745Z,16.09
2023-01-13T02:15:17.590Z,16.09
2023-01-13T02:18:46.932Z,16.08
2023-01-13T02:22:07.157Z,16.08
2023-01-13T02:25:25.587Z,16.07
2023-01-13T02:29:14.201Z,16.07
2023-01-13T02:32:33.119Z,16.06
2023-01-13T02:35:43.715Z,16.04
2023-01-13T02:38:52.508Z,16.05
2023-01-13T02:42:26.018Z,16.05
2023-01-13T02:45:36.965Z,16.04
2023-01-13T02:48:39.719Z,16.03
2023-01-13T02:51:44.270Z,16.03
2023-01-13T02:54:54.150Z,16.03
2023-01-13T02:57:59.447Z,16.02
2023-01-13T03:01:01.042Z,16.00
2023-01-13T03:04:35.380Z,16.02
2023-01-13T03:07:42.589Z,16.01
2023-01-13T03:11:01.272Z,16.01
2023-01-13T03:14:11.598Z,15.97
2023-01-13T03:17:36.129Z,15.99
2023-01-13T03:20:44.029Z,15.99
2023-01-13T03:23:54.517Z,15.99
2023-01-13T03:27:05.974Z,15.99
2023-01-13T03:30:13.609Z,15.97
2023-01-13T03:33:23.831Z,15.97
2023-01-13T03:36:28.021Z,15.96
2023-01-13T03:39:34.848Z,15.96
2023-01-13T03:42:39.317Z,15.96
2023-01-13T03:45:43.268Z,15.94
2023-01-13T03:48:46.518Z,15.94
2023-01-13T03:51:55.274Z,15.95
2023-01-13T03:55:11.825Z,15.95
2023-01-13T03:58:22.944Z,15.93
2023-01-13T04:01:45.659Z,15.94
2023-01-13T04:04:47.171Z,15.91
2023-01-13T04:07:54.426Z,15.92
2023-01-13T04:11:20.095Z,15.92
2023-01-13T04:14:24.518Z,15.91
2023-01-13T04:17:28.613Z,15.89
2023-01-13T04:20:30.432Z,15.90
2023-01-13T04:23:32.848Z,15.88
2023-01-13T04:26:34.360Z,15.90
2023-01-13T04:29:35.821Z,15.89
2023-01-13T04:32:37.324Z,15.88
2023-01-13T04:35:39.118Z,15.88
2023-01-13T04:38:40.595Z,15.88
2023-01-13T04:42:02.278Z,15.86
2023-01-13T04:45:04.074Z,15.87
2023-01-13T04:48:05.871Z,15.87
2023-01-13T04:51:07.406Z,15.87
2023-01-13T04:54:11.259Z,15.87
2023-01-13T04:57:12.803Z,15.85
2023-01-13T05:00:17.224Z,15.89
2023-01-13T05:03:18.798Z,15.88
2023-01-13T05:06:20.351Z,15.87
2023-01-13T05:09:21.824Z,15.85
2023-01-13T05:12:42.247Z,15.84
2023-01-13T05:16:02.182Z,15.84
2023-01-13T05:19:03.756Z,15.83
2023-01-13T05:22:24.008Z,15.83
2023-01-13T05:25:27.280Z,15.83
2023-01-13T05:28:33.511Z,15.83
2023-01-13T05:31:35.081Z,15.82
2023-01-13T05:34:36.696Z,15.81
2023-01-13T05:37:38.322Z,15.81
2023-01-13T05:40:59.714Z,15.81
2023-01-13T05:44:01.316Z,15.80
2023-01-13T05:47:02.769Z,15.80
2023-01-13T05:50:04.935Z,15.80
2023-01-13T05:53:06.479Z,15.80
2023-01-13T05:56:09.150Z,15.80
2023-01-13T05:59:10.766Z,15.81
2023-01-13T06:02:12.289Z,15.82
2023-01-13T06:05:13.912Z,15.83
2023-01-13T06:08:15.492Z,15.84
2023-01-13T06:11:16.956Z,15.85
2023-01-13T06:14:18.411Z,15.87
2023-01-13T06:17:19.958Z,15.89
2023-01-13T06:20:21.433Z,15.90
2023-01-13T06:23:23.601Z,15.92
2023-01-13T06:26:27.747Z,15.95
2023-01-13T06:29:29.210Z,15.96
2023-01-13T06:32:38.834Z,15.98
2023-01-13T06:35:43.462Z,15.99
2023-01-13T06:38:49.772Z,16.00
2023-01-13T06:42:12.568Z,16.02
2023-01-13T06:45:14.437Z,16.01
2023-01-13T06:48:17.471Z,16.02
2023-01-13T06:51:19.004Z,16.02
2023-01-13T06:54:20.489Z,16.03
2023-01-13T06:57:21.999Z,16.02
2023-01-13T07:00:25.319Z,16.03
2023-01-13T07:03:26.796Z,16.03
2023-01-13T07:06:28.828Z,16.02
2023-01-13T07:09:30.399Z,16.02
2023-01-13T07:12:51.846Z,16.03
2023-01-13T07:15:54.570Z,16.02
2023-01-13T07:18:56.227Z,16.00
2023-01-13T07:21:57.703Z,16.02
2023-01-13T07:24:59.221Z,16.01
2023-01-13T07:28:00.735Z,16.00
2023-01-13T07:31:02.781Z,15.99
2023-01-13T07:34:05.135Z,15.99
2023-01-13T07:37:06.645Z,15.99
2023-01-13T07:40:09.341Z,15.99
2023-01-13T07:43:31.238Z,15.98
2023-01-13T07:46:33.717Z,15.98
2023-01-13T07:49:35.232Z,15.96
2023-01-13T07:52:36.784Z,15.95
2023-01-13T07:55:42.735Z,15.97
2023-01-13T07:58:45.067Z,15.95
2023-01-13T08:01:46.672Z,15.94
2023-01-13T08:04:48.347Z,15.92
2023-01-13T08:07:49.870Z,15.91
2023-01-13T08:10:51.383Z,15.92
2023-01-13T08:13:57.204Z,15.91
2023-01-13T08:16:58.777Z,15.90
2023-01-13T08:20:00.285Z,15.88
2023-01-13T08:23:01.935Z,15.87
2023-01-13T08:26:06.654Z,15.88
2023-01-13T08:29:08.157Z,15.85
2023-01-13T08:32:09.645Z,15.84
2023-01-13T08:35:11.241Z,15.83
2023-01-13T08:38:12.755Z,15.82
2023-01-13T08:41:36.370Z,15.83
2023-01-13T08:44:37.923Z,15.82
2023-01-13T08:47:39.856Z,15.83
2023-01-13T08:50:41.378Z,15.83
2023-01-13T08:53:42.866Z,15.83
2023-01-13T08:56:45.581Z,15.82
2023-01-13T08:59:47.462Z,15.83
2023-01-13T09:02:48.974Z,15.82
2023-01-13T09:05:50.438Z,15.82
2023-01-13T09:08:52.059Z,15.81
2023-01-13T09:12:14.188Z,15.82
2023-01-13T09:15:18.382Z,15.83
2023-01-13T09:18:19.933Z,15.82
2023-01-13T09:21:22.471Z,15.82
2023-01-13T09:24:24.988Z,15.82
2023-01-13T09:27:26.485Z,15.80
2023-01-13T09:30:28.288Z,15.81
2023-01-13T09:33:48.328Z,15.80
2023-01-13T09:36:50.624Z,15.79
2023-01-13T09:39:52.090Z,15.79
2023-01-13T09:43:17.875Z,15.78
2023-01-13T09:46:47.395Z,15.79
2023-01-13T09:49:49.072Z,15.79
2023-01-13T09:52:50.888Z,15.77
2023-01-13T09:55:52.965Z,15.78
2023-01-13T09:58:54.586Z,15.77
2023-01-13T10:02:30.996Z,15.78
2023-01-13T10:05:32.454Z,15.76
2023-01-13T10:08:45.363Z,15.77
2023-01-13T10:12:07.538Z,15.76
2023-01-13T10:15:17.290Z,15.76
2023-01-13T10:18:27.673Z,15.75
2023-01-13T10:21:48.853Z,15.75
2023-01-13T10:25:02.596Z,15.72
2023-01-13T10:28:18.433Z,15.72
2023-01-13T10:31:22.189Z,15.70
2023-01-13T10:34:24.930Z,15.69
2023-01-13T10:37:28.352Z,15.69
2023-01-13T10:40:29.891Z,15.68
2023-01-13T10:43:31.917Z,15.66
2023-01-13T10:46:35.725Z,15.65
2023-01-13T10:49:38.620Z,15.66
2023-01-13T10:52:55.178Z,15.66
2023-01-13T10:56:01.988Z,15.69
2023-01-13T10:59:13.465Z,15.70
2023-01-13T11:02:30.522Z,15.70
2023-01-13T11:05:32.186Z,15.66
2023-01-13T11:08:45.417Z,15.56
2023-01-13T11:11:49.533Z,15.37
2023-01-13T11:14:52.111Z,15.23
2023-01-13T11:18:35.124Z,15.09
2023-01-13T11:21:39.282Z,14.96
2023-01-13T11:24:45.890Z,14.82
2023-01-13T11:27:55.561Z,14.71
2023-01-13T11:31:13.275Z,14.60
2023-01-13T11:34:20.778Z,14.53
2023-01-13T11:37:39.916Z,14.45
2023-01-13T11:40:45.913Z,14.43
2023-01-13T11:43:56.408Z,14.42
2023-01-13T11:46:58.062Z,14.41
2023-01-13T11:50:00.999Z,14.43
2023-01-13T11:53:39.937Z,14.50
2023-01-13T11:57:19.138Z,14.56
2023-01-13T12:00:31.742Z,14.62
2023-01-13T12:03:38.310Z,14.65
2023-01-13T12:06:41.321Z,14.69
2023-01-13T12:10:03.468Z,14.73
2023-01-13T12:13:24.022Z,14.74
2023-01-13T12:16:28.452Z,14.78
2023-01-13T12:19:32.287Z,14.81
2023-01-13T12:22:36.823Z,14.84
2023-01-13T12:25:45.435Z,14.87
2023-01-13T12:29:07.631Z,14.90
2023-01-13T12:32:15.336Z,14.92
2023-01-13T12:35:37.601Z,14.93
2023-01-13T12:38:48.003Z,14.97
2023-01-13T12:42:32.595Z,14.99
2023-01-13T12:45:34.200Z,14.99
2023-01-13T12:48:49.256Z,15.01
2023-01-13T12:51:50.707Z,15.01
2023-01-13T12:54:53.705Z,15.02
2023-01-13T12:58:04.297Z,15.04
2023-01-13T13:01:15.493Z,15.06
2023-01-13T13:04:41.957Z,15.06
2023-01-13T13:07:49.518Z,15.07
2023-01-13T13:11:00.149Z,15.07
2023-01-13T13:14:13.746Z,15.08
2023-01-13T13:17:31.610Z,15.09
2023-01-13T13:20:57.955Z,15.10
2023-01-13T13:24:04.943Z,15.10
2023-01-13T13:27:31.454Z,15.12
2023-01-13T13:30:39.289Z,15.12
2023-01-13T13:33:58.988Z,15.14
2023-01-13T13:37:09.779Z,15.14
2023-01-13T13:40:33.893Z,15.15
2023-01-13T13:44:00.836Z,15.16
2023-01-13T13:47:04.054Z,15.17
2023-01-13T13:50:14.308Z,15.19
2023-01-13T13:53:19.006Z,15.20
2023-01-13T13:56:24.312Z,15.23
2023-01-13T13:59:30.607Z,15.25
2023-01-13T14:02:36.804Z,15.26
2023-01-13T14:05:38.327Z,15.25
2023-01-13T14:08:46.622Z,15.26
2023-01-13T14:12:02.328Z,15.28
2023-01-13T14:15:04.192Z,15.26
2023-01-13T14:18:12.561Z,15.28
2023-01-13T14:21:19.843Z,15.29
2023-01-13T14:24:22.486Z,15.26
2023-01-13T14:27:28.799Z,15.29
2023-01-13T14:30:31.381Z,15.28
2023-01-13T14:33:38.881Z,15.30
2023-01-13T14:36:41.804Z,15.29
2023-01-13T14:39:43.292Z,15.29
2023-01-13T14:42:44.796Z,15.30
2023-01-13T14:46:00.104Z,15.32
2023-01-13T14:49:02.083Z,15.30
2023-01-13T14:52:23.727Z,15.34
2023-01-13T14:55:31.207Z,15.34
2023-01-13T14:58:32.839Z,15.33
2023-01-13T15:01:36.478Z,15.34
2023-01-13T15:04:38.229Z,15.35
2023-01-13T15:07:39.784Z,15.36
2023-01-13T15:10:55.043Z,15.37
2023-01-13T15:14:01.323Z,15.38
2023-01-13T15:17:03.294Z,15.37
2023-01-13T15:20:13.441Z,15.39
2023-01-13T15:23:14.914Z,15.38
2023-01-13T15:26:21.273Z,15.40
2023-01-13T15:29:24.303Z,15.39
2023-01-13T15:32:25.938Z,15.40
2023-01-13T15:35:28.677Z,15.42
2023-01-13T15:38:30.255Z,15.41
2023-01-13T15:41:50.587Z,15.42
2023-01-13T15:45:10.410Z,15.42
2023-01-13T15:48:12.547Z,15.45
2023-01-13T15:51:14.405Z,15.48
2023-01-13T15:54:16.138Z,15.51
2023-01-13T15:57:31.733Z,15.57
2023-01-13T16:00:33.473Z,15.60
2023-01-13T16:03:34.965Z,15.63
2023-01-13T16:06:37.191Z,15.67
2023-01-13T16:09:38.669Z,15.71
2023-01-13T16:12:41.573Z,15.74
2023-01-13T16:15:46.995Z,15.78
2023-01-13T16:18:49.609Z,15.80
2023-01-13T16:21:51.139Z,15.82
2023-01-13T16:24:52.632Z,15.84
2023-01-13T16:27:54.162Z,15.88
2023-01-13T16:30:55.688Z,15.89
2023-01-13T16:33:58.427Z,15.92
2023-01-13T16:37:00.066Z,15.95
2023-01-13T16:40:02.581Z,15.97
2023-01-13T16:43:06.583Z,16.00
2023-01-13T16:46:28.860Z,16.04
2023-01-13T16:49:30.414Z,16.04
2023-01-13T16:52:31.884Z,16.05
2023-01-13T16:55:33.408Z,16.06
2023-01-13T16:58:34.865Z,16.09
2023-01-13T17:01:39.564Z,16.13
2023-01-13T17:04:41.582Z,16.15
2023-01-13T17:07:45.503Z,16.19
2023-01-13T17:10:47.428Z,16.22
2023-01-13T17:13:48.915Z,16.23
2023-01-13T17:16:52.575Z,16.27
2023-01-13T17:19:55.224Z,16.30
2023-01-13T17:22:58.462Z,16.31
2023-01-13T17:26:00.431Z,16.32
2023-01-13T17:29:09.883Z,16.33
2023-01-13T17:32:16.367Z,16.33
2023-01-13T17:35:22.796Z,16.31
2023-01-13T17:38:24.303Z,16.28
2023-01-13T17:41:26.466Z,16.27
2023-01-13T17:44:27.924Z,16.23
2023-01-13T17:47:29.480Z,16.22
2023-01-13T17:50:32.447Z,16.23
2023-01-13T17:53:34.111Z,16.23
2023-01-13T17:56:35.597Z,16.23
2023-01-13T17:59:37.133Z,16.21
2023-01-13T18:02:38.721Z,16.22
2023-01-13T18:05:41.907Z,16.23
2023-01-13T18:08:43.843Z,16.23
2023-01-13T18:11:47.297Z,16.22
2023-01-13T18:14:48.933Z,16.24
2023-01-13T18:17:50.393Z,16.25
2023-01-13T18:21:10.513Z,16.26
2023-01-13T18:24:32.987Z,16.28
2023-01-13T18:27:38.040Z,16.30
2023-01-13T18:30:39.582Z,16.30
2023-01-13T18:33:41.056Z,16.33
2023-01-13T18:36:42.633Z,16.36
2023-01-13T18:39:44.374Z,16.38
2023-01-13T18:42:54.022Z,16.39
2023-01-13T18:45:55.532Z,16.41
2023-01-13T18:48:57.090Z,16.43
2023-01-13T18:51:58.646Z,16.44
2023-01-13T18:55:00.124Z,16.46
2023-01-13T18:58:01.803Z,16.48
2023-01-13T19:01:05.655Z,16.51
2023-01-13T19:04:10.530Z,16.54
2023-01-13T19:07:16.527Z,16.55
2023-01-13T19:10:18.540Z,16.57
2023-01-13T19:13:20.082Z,16.59
2023-01-13T19:16:21.709Z,16.59
2023-01-13T19:19:23.175Z,16.60
2023-01-13T19:22:34.828Z,16.62
2023-01-13T19:25:36.917Z,16.63
2023-01-13T19:28:40.117Z,16.65
2023-01-13T19:31:41.620Z,16.66
2023-01-13T19:34:44.058Z,16.68
2023-01-13T19:37:45.765Z,16.67
2023-01-13T19:41:02.388Z,16.71
2023-01-13T19:44:22.490Z,16.71
2023-01-13T19:47:24.160Z,16.70
2023-01-13T19:50:25.714Z,16.71
2023-01-13T19:53:28.500Z,16.72
2023-01-13T19:56:30.681Z,16.72
2023-01-13T19:59:33.427Z,16.73
2023-01-13T20:02:36.592Z,16.75
2023-01-13T20:05:38.173Z,16.77
2023-01-13T20:08:40.170Z,16.79
2023-01-13T20:11:41.644Z,16.80
2023-01-13T20:14:43.627Z,16.81
2023-01-13T20:17:45.124Z,16.82
2023-01-13T20:20:46.639Z,16.83
2023-01-13T20:23:52.924Z,16.84
2023-01-13T20:26:54.991Z,16.84
2023-01-13T20:29:56.544Z,16.85
2023-01-13T20:32:58.026Z,16.85
2023-01-13T20:35:59.547Z,16.87
2023-01-13T20:39:02.138Z,16.89
2023-01-13T20:42:22.640Z,16.89
2023-01-13T20:45:25.948Z,16.90
2023-01-13T20:48:27.401Z,16.89
2023-01-13T20:51:28.896Z,16.91
2023-01-13T20:54:30.581Z,16.93
2023-01-13T20:57:32.131Z,16.93
2023-01-13T21:00:33.713Z,16.95
2023-01-13T21:03:35.262Z,16.94
2023-01-13T21:06:36.842Z,16.97
2023-01-13T21:09:38.321Z,16.95
2023-01-13T21:12:58.462Z,16.96
2023-01-13T21:16:00.068Z,16.98
2023-01-13T21:19:07.605Z,16.98
2023-01-13T21:22:09.091Z,16.99
2023-01-13T21:25:12.424Z,17.01
2023-01-13T21:28:16.097Z,17.01
2023-01-13T21:31:18.170Z,17.02
2023-01-13T21:34:19.710Z,17.01
2023-01-13T21:37:22.039Z,17.02
2023-01-13T21:40:23.545Z,17.03
2023-01-13T21:43:43.733Z,17.02
2023-01-13T21:47:03.520Z,17.03
2023-01-13T21:50:09.108Z,17.04
2023-01-13T21:53:11.010Z,17.03
2023-01-13T21:56:12.497Z,17.04
2023-01-13T21:59:14.119Z,17.05
2023-01-13T22:02:31.989Z,17.03
2023-01-13T22:05:34.147Z,17.03
2023-01-13T22:08:35.662Z,17.02
2023-01-13T22:11:37.209Z,17.03
2023-01-13T22:14:38.688Z,17.01
2023-01-13T22:17:42.106Z,17.02
2023-01-13T22:20:44.021Z,17.00
2023-01-13T22:23:45.602Z,17.00
2023-01-13T22:26:47.187Z,17.00
2023-01-13T22:29:49.932Z,16.99
2023-01-13T22:32:51.510Z,16.98
2023-01-13T22:35:55.996Z,16.97
2023-01-13T22:38:59.375Z,16.97
2023-01-13T22:42:01.063Z,16.95
2023-01-13T22:45:02.579Z,16.94
2023-01-13T22:48:04.200Z,16.94
2023-01-13T22:51:14.299Z,16.94
2023-01-13T22:54:17.594Z,16.93
2023-01-13T22:57:19.109Z,16.91
2023-01-13T23:00:20.898Z,16.87
2023-01-13T23:03:22.870Z,16.74
2023-01-13T23:06:26.441Z,16.60
2023-01-13T23:09:31.133Z,16.48
2023-01-13T23:12:32.724Z,16.33
2023-01-13T23:15:35.088Z,16.24
2023-01-13T23:18:37.438Z,16.15
2023-01-13T23:21:39.024Z,16.08
2023-01-13T23:24:40.532Z,16.06
2023-01-13T23:27:42.174Z,15.99
2023-01-13T23:30:43.664Z,15.92
2023-01-13T23:33:45.802Z,15.87
2023-01-13T23:36:47.415Z,15.83
2023-01-13T23:39:49.321Z,15.80
2023-01-13T23:42:50.843Z,15.77
2023-01-13T23:45:53.317Z,15.70
2023-01-13T23:48:55.486Z,15.66
2023-01-13T23:51:57.072Z,15.70
2023-01-13T23:54:59.183Z,15.77
2023-01-13T23:58:00.747Z,15.84
